Time;durP1;ratioP1;P1;durP2;ratioP2;P2;SDS_P1;SDS_P2;PMS_P1;PMS_P2;Temp;Humidity;BMP_temperature;BMP_pressure;BME280_temperature;BME280_humidity;BME280_pressure;Samples;Min_cycle;Max_cycle;Signal;HPM_P1;HPM_P2
2022/02/08 00:00:00;;;;;;;;;;;;;;;24.41;31.98;98533.13;172680;28;787;-56
2022/02/08 00:00:06;;;;;;;;;;;;;;;24.41;32.11;98536.63;172607;28;825;-56
2022/02/08 00:00:11;;;;;;;;;;;;;;;24.42;31.89;98537.47;173070;28;1094;-56
2022/02/08 00:00:18;;;;;;;;;;;;;;;24.42;32.10;98534.84;173315;28;912;-55
2022/02/08 00:00:23;;;;;;;;;;;;;;;24.42;32.06;98527.78;173285;28;1190;-56
2022/02/08 00:00:28;;;;;;;;;;;;;;;24.43;32.01;98533.91;173306;28;1030;-56
2022/02/08 00:00:36;;;;;;;;;;;;;;;24.41;31.99;98530.47;173302;28;1224;-55
2022/02/08 00:00:42;;;;;;;;;;;;;;;24.40;31.85;98537.53;173325;28;813;-56
2022/02/08 00:00:49;;;;;;;;;;;;;;;24.40;31.90;98536.69;172595;28;1259;-57
2022/02/08 00:00:54;;;;;;;;;;;;;;;24.39;32.19;98533.22;172631;28;1149;-56
2022/02/08 00:01:00;;;;;;;;;;;;;;;24.40;31.86;98536.69;173191;28;1093;-56
2022/02/08 00:01:05;;;;;;;;;;;;;;;24.40;31.87;98534.06;173158;28;798;-56
2022/02/08 00:01:11;;;;;;;;;;;;;;;24.39;32.20;98537.63;173036;28;1215;-56
2022/02/08 00:01:16;;;;;;;;;;;;;;;24.40;31.88;98536.69;173230;28;821;-55
2022/02/08 00:01:22;;;;;;;;;;;;;;;24.37;32.05;98535.09;173202;28;1164;-56
2022/02/08 00:01:29;;;;;;;;;;;;;;;24.39;31.87;98538.47;173285;28;900;-57
2022/02/08 00:01:38;;;;;;;;;;;;;;;24.40;32.14;98540.19;172644;28;1335;-56
2022/02/08 00:01:56;;;;;;;;;;;;;;;24.42;32.02;98540.13;172889;28;1154;-56
2022/02/08 00:02:02;;;;;;;;;;;;;;;24.41;31.97;98536.63;172753;28;958;-55
2022/02/08 00:02:10;;;;;;;;;;;;;;;24.43;31.79;98536.53;173268;28;1156;-56
2022/02/08 00:02:16;;;;;;;;;;;;;;;24.45;31.90;98538.13;172811;28;4495;-56
2022/02/08 00:02:21;;;;;;;;;;;;;;;24.47;32.02;98541.53;173347;28;1350;-56
2022/02/08 00:02:28;;;;;;;;;;;;;;;24.50;31.94;98532.59;173343;28;790;-56
2022/02/08 00:02:36;;;;;;;;;;;;;;;24.51;32.02;98536.94;172671;28;932;-56
2022/02/08 00:02:47;;;;;;;;;;;;;;;24.53;31.68;98535.03;172803;28;1037;-55
2022/02/08 00:02:55;;;;;;;;;;;;;;;24.50;31.66;98538.72;173246;28;1105;-56
2022/02/08 00:03:02;;;;;;;;;;;;;;;24.51;32.00;98542.22;172546;28;1185;-56
2022/02/08 00:03:08;;;;;;;;;;;;;;;24.54;31.63;98544.66;172712;28;1176;-56
2022/02/08 00:03:13;;;;;;;;;;;;;;;24.55;31.75;98534.94;172657;28;825;-56
2022/02/08 00:03:19;;;;;;;;;;;;;;;24.56;31.70;98542.75;172995;28;1197;-56
2022/02/08 00:03:24;;;;;;;;;;;;;;;24.57;31.67;98541.84;173375;28;916;-56
2022/02/08 00:03:29;;;;;;;;;;;;;;;24.57;31.72;98543.63;172988;28;1226;-56
2022/02/08 00:03:34;;;;;;;;;;;;;;;24.56;31.72;98536.66;172615;28;924;-56
2022/02/08 00:03:40;;;;;;;;;;;;;;;24.55;31.92;98542.88;173256;28;959;-56
2022/02/08 00:03:45;;;;;;;;;;;;;;;24.54;31.46;98547.28;173329;28;813;-56
2022/02/08 00:03:50;;;;;;;;;;;;;;;24.52;31.87;98538.63;173339;28;1188;-56
2022/02/08 00:03:56;;;;;;;;;;;;;;;24.49;31.92;98539.66;172752;28;980;-54
2022/02/08 00:04:01;;;;;;;;;;;;;;;24.50;32.07;98536.09;173142;28;1200;-57
2022/02/08 00:04:06;;;;;;;;;;;;;;;24.51;31.92;98544.84;173195;28;1176;-56
2022/02/08 00:04:11;;;;;;;;;;;;;;;24.54;31.93;98542.00;172768;28;718;-54
2022/02/08 00:04:17;;;;;;;;;;;;;;;24.54;31.77;98541.16;172956;28;1106;-55
2022/02/08 00:04:22;;;;;;;;;;;;;;;24.54;31.85;98541.16;173373;28;881;-57
2022/02/08 00:04:27;;;;;;;;;;;;;;;24.54;31.77;98547.28;173150;28;1198;-56
2022/02/08 00:04:33;;;;;;;;;;;;;;;24.58;31.91;98545.34;172883;28;948;-56
2022/02/08 00:04:38;;;;;;;;;;;;;;;24.58;31.46;98540.06;173246;28;1239;-55
2022/02/08 00:04:43;;;;;;;;;;;;;;;24.59;31.65;98541.75;173313;28;841;-56
2022/02/08 00:04:50;;;;;;;;;;;;;;;24.60;31.48;98538.19;173294;28;908;-56
2022/02/08 00:04:56;;;;;;;;;;;;;;;24.60;31.71;98543.44;172768;28;1681;-55
2022/02/08 00:05:02;;;;;;;;;;;;;;;24.58;31.58;98535.63;172707;28;1013;-56
2022/02/08 00:05:09;;;;;;;;;;;;;;;24.56;31.65;98540.13;173357;28;857;-55
2022/02/08 00:05:16;;;;;;;;;;;;;;;24.58;31.84;98542.69;172821;28;1074;-56
2022/02/08 00:05:23;;;;;;;;;;;;;;;24.52;31.73;98536.00;173369;28;765;-56
2022/02/08 00:05:29;;;;;;;;;;;;;;;24.49;31.92;98539.66;173032;28;1081;-57
2022/02/08 00:05:34;;;;;;;;;;;;;;;24.51;31.93;98534.28;173365;28;797;-56
2022/02/08 00:05:39;;;;;;;;;;;;;;;24.51;31.63;98536.94;173254;28;1164;-56
2022/02/08 00:05:52;;;;;;;;;;;;;;;24.54;31.72;98543.81;173380;28;924;-56
2022/02/08 00:06:16;;;;;;;;;;;;;;;24.49;31.73;98533.53;172360;28;4496;-55
2022/02/08 00:06:47;;;;;;;;;;;;;;;24.48;31.90;98540.56;173270;28;707;-56
2022/02/08 00:06:52;;;;;;;;;;;;;;;24.46;31.76;98537.19;173318;28;1391;-57
2022/02/08 00:07:00;;;;;;;;;;;;;;;24.45;31.98;98538.13;172776;28;874;-56
2022/02/08 00:07:07;;;;;;;;;;;;;;;24.44;31.81;98541.72;172658;28;675;-56
2022/02/08 00:07:13;;;;;;;;;;;;;;;24.43;31.84;98537.38;172890;28;1081;-56
2022/02/08 00:07:18;;;;;;;;;;;;;;;24.45;32.03;98534.66;173299;28;821;-56
2022/02/08 00:07:25;;;;;;;;;;;;;;;24.44;32.04;98539.06;173292;28;1106;-55
2022/02/08 00:07:32;;;;;;;;;;;;;;;24.43;31.69;98534.75;173329;28;798;-56
2022/02/08 00:07:38;;;;;;;;;;;;;;;24.44;32.01;98536.44;172877;28;1215;-55
2022/02/08 00:07:50;;;;;;;;;;;;;;;24.44;31.70;98538.22;172618;28;822;-55
2022/02/08 00:07:56;;;;;;;;;;;;;;;24.43;31.75;98541.81;172722;28;889;-55
2022/02/08 00:08:01;;;;;;;;;;;;;;;24.43;31.82;98541.81;173058;28;1184;-55
2022/02/08 00:08:06;;;;;;;;;;;;;;;24.44;31.87;98538.22;173319;28;1054;-55
2022/02/08 00:08:12;;;;;;;;;;;;;;;24.44;31.81;98538.22;173255;28;982;-55
2022/02/08 00:08:17;;;;;;;;;;;;;;;24.42;31.72;98537.47;173259;28;940;-56
2022/02/08 00:08:22;;;;;;;;;;;;;;;24.43;31.78;98541.81;173345;28;1232;-56
2022/02/08 00:08:27;;;;;;;;;;;;;;;24.44;31.77;98540.88;173242;28;832;-56
2022/02/08 00:08:32;;;;;;;;;;;;;;;24.43;31.90;98540.03;173318;28;936;-56
2022/02/08 00:08:38;;;;;;;;;;;;;;;24.44;31.74;98541.72;172702;28;1237;-56
2022/02/08 00:08:43;;;;;;;;;;;;;;;24.43;31.76;98534.75;172754;28;882;-57
2022/02/08 00:08:48;;;;;;;;;;;;;;;24.44;32.01;98544.34;173303;28;1247;-56
2022/02/08 00:08:53;;;;;;;;;;;;;;;24.46;31.98;98544.25;173376;28;806;-55
2022/02/08 00:08:58;;;;;;;;;;;;;;;24.45;32.02;98548.69;173137;28;1006;-56
2022/02/08 00:09:04;;;;;;;;;;;;;;;24.43;32.03;98539.16;173190;28;1167;-55
2022/02/08 00:09:11;;;;;;;;;;;;;;;24.43;31.98;98539.16;173177;28;962;-55
2022/02/08 00:09:17;;;;;;;;;;;;;;;24.44;31.81;98546.13;173310;28;818;-55
2022/02/08 00:09:24;;;;;;;;;;;;;;;24.43;32.02;98540.03;173300;28;1090;-56
2022/02/08 00:09:31;;;;;;;;;;;;;;;24.43;31.95;98541.81;173322;28;927;-55
2022/02/08 00:09:37;;;;;;;;;;;;;;;24.41;31.96;98539.25;172752;28;1219;-56
2022/02/08 00:09:42;;;;;;;;;;;;;;;24.42;31.89;98540.13;173323;28;825;-56
2022/02/08 00:09:47;;;;;;;;;;;;;;;24.43;32.11;98539.16;173225;28;1153;-55
2022/02/08 00:09:53;;;;;;;;;;;;;;;24.44;32.02;98540.88;173382;28;1016;-55
2022/02/08 00:09:58;;;;;;;;;;;;;;;24.42;32.13;98545.38;173199;28;1025;-57
2022/02/08 00:10:03;;;;;;;;;;;;;;;24.41;31.98;98544.53;172636;28;4878;-54
2022/02/08 00:10:08;;;;;;;;;;;;;;;24.40;32.19;98541.97;173196;28;1106;-55
2022/02/08 00:10:14;;;;;;;;;;;;;;;24.45;31.90;98542.56;173300;28;892;-57
2022/02/08 00:10:19;;;;;;;;;;;;;;;24.46;32.13;98538.97;173353;28;798;-57
2022/02/08 00:10:27;;;;;;;;;;;;;;;24.49;31.87;98546.72;173296;28;877;-55
2022/02/08 00:10:32;;;;;;;;;;;;;;;24.49;31.81;98546.72;173278;28;1069;-56
2022/02/08 00:10:38;;;;;;;;;;;;;;;24.48;31.77;98537.09;173335;28;833;-56
2022/02/08 00:10:44;;;;;;;;;;;;;;;24.48;31.81;98543.22;173235;28;1137;-56
2022/02/08 00:10:49;;;;;;;;;;;;;;;24.47;31.88;98546.78;173367;28;809;-56
2022/02/08 00:10:54;;;;;;;;;;;;;;;24.47;31.90;98541.53;173347;28;829;-56
2022/02/08 00:10:59;;;;;;;;;;;;;;;24.48;31.62;98543.22;172472;28;938;-54
2022/02/08 00:11:05;;;;;;;;;;;;;;;24.50;31.74;98543.16;173240;28;754;-56
2022/02/08 00:11:11;;;;;;;;;;;;;;;24.50;31.69;98546.63;173225;28;1180;-55
2022/02/08 00:11:16;;;;;;;;;;;;;;;24.49;31.63;98539.66;173301;28;734;-55
2022/02/08 00:11:21;;;;;;;;;;;;;;;24.50;31.82;98548.44;173339;28;1180;-56
2022/02/08 00:11:26;;;;;;;;;;;;;;;24.47;31.73;98543.31;173320;28;921;-56
2022/02/08 00:11:32;;;;;;;;;;;;;;;24.47;31.96;98541.53;173281;28;979;-55
2022/02/08 00:11:37;;;;;;;;;;;;;;;24.47;31.62;98546.78;173322;28;834;-56
2022/02/08 00:11:43;;;;;;;;;;;;;;;24.49;31.92;98544.09;173143;28;1148;-54
2022/02/08 00:11:48;;;;;;;;;;;;;;;24.48;31.74;98543.22;172610;28;838;-57
2022/02/08 00:11:53;;;;;;;;;;;;;;;24.47;31.87;98535.41;172711;28;842;-56
2022/02/08 00:11:59;;;;;;;;;;;;;;;24.46;31.70;98545.09;172869;28;1008;-55
2022/02/08 00:12:04;;;;;;;;;;;;;;;24.46;32.02;98549.53;173115;28;1259;-55
2022/02/08 00:12:09;;;;;;;;;;;;;;;24.48;31.62;98543.22;173229;28;1120;-55
2022/02/08 00:12:14;;;;;;;;;;;;;;;24.49;32.01;98552.84;173353;28;1000;-56
2022/02/08 00:12:20;;;;;;;;;;;;;;;24.47;31.67;98540.66;173290;28;1208;-56
2022/02/08 00:12:25;;;;;;;;;;;;;;;24.46;31.83;98542.47;173330;28;802;-56
2022/02/08 00:12:30;;;;;;;;;;;;;;;24.45;31.97;98545.19;173247;28;1117;-56
2022/02/08 00:12:35;;;;;;;;;;;;;;;24.46;31.87;98549.53;173308;28;992;-55
2022/02/08 00:12:40;;;;;;;;;;;;;;;24.48;31.94;98548.50;173221;28;1113;-54
2022/02/08 00:12:46;;;;;;;;;;;;;;;24.48;32.01;98551.13;172671;28;837;-57
2022/02/08 00:12:51;;;;;;;;;;;;;;;24.49;31.83;98544.09;172681;28;881;-56
2022/02/08 00:12:57;;;;;;;;;;;;;;;24.50;31.69;98546.63;172780;28;1189;-56
2022/02/08 00:13:02;;;;;;;;;;;;;;;24.53;31.98;98550.88;172867;28;1348;-56
2022/02/08 00:13:08;;;;;;;;;;;;;;;24.50;31.76;98544.00;173269;28;1152;-56
2022/02/08 00:13:13;;;;;;;;;;;;;;;24.50;31.67;98545.78;173312;28;802;-56
2022/02/08 00:13:18;;;;;;;;;;;;;;;24.48;31.71;98545.84;173247;28;1153;-55
2022/02/08 00:13:23;;;;;;;;;;;;;;;24.50;31.67;98549.28;173334;28;924;-55
2022/02/08 00:13:28;;;;;;;;;;;;;;;24.50;31.86;98548.44;173228;28;1137;-55
2022/02/08 00:13:34;;;;;;;;;;;;;;;24.49;31.67;98552.00;173307;28;810;-56
2022/02/08 00:13:39;;;;;;;;;;;;;;;24.45;31.92;98551.31;173410;28;458;-55
2022/02/08 00:13:44;;;;;;;;;;;;;;;24.45;32.18;98553.94;172637;28;1080;-56
2022/02/08 00:13:49;;;;;;;;;;;;;;;24.46;31.64;98554.81;172762;28;821;-56
2022/02/08 00:13:54;;;;;;;;;;;;;;;24.49;31.69;98549.38;172914;28;1358;-54
2022/02/08 00:14:00;;;;;;;;;;;;;;;24.49;31.86;98550.22;172946;28;959;-54
2022/02/08 00:14:05;;;;;;;;;;;;;;;24.51;31.76;98552.75;172817;28;4455;-55
2022/02/08 00:14:10;;;;;;;;;;;;;;;24.53;31.84;98552.66;173232;28;2240;-56
2022/02/08 00:14:15;;;;;;;;;;;;;;;24.54;31.83;98547.28;173284;28;1164;-56
2022/02/08 00:14:20;;;;;;;;;;;;;;;24.57;31.64;98551.53;173319;28;889;-55
2022/02/08 00:14:26;;;;;;;;;;;;;;;24.55;31.59;98546.34;173307;28;929;-56
2022/02/08 00:14:31;;;;;;;;;;;;;;;24.57;31.49;98557.69;173168;28;1184;-56
2022/02/08 00:14:36;;;;;;;;;;;;;;;24.55;31.74;98548.13;173271;28;956;-55
2022/02/08 00:14:41;;;;;;;;;;;;;;;24.56;31.79;98552.47;172745;28;1173;-56
2022/02/08 00:14:48;;;;;;;;;;;;;;;24.54;31.71;98549.94;172585;28;822;-55
2022/02/08 00:14:54;;;;;;;;;;;;;;;24.54;31.65;98551.72;173050;28;1137;-56
2022/02/08 00:14:59;;;;;;;;;;;;;;;24.53;31.84;98555.28;171812;28;1038;-53
2022/02/08 00:15:05;;;;;;;;;;;;;;;24.52;31.60;98554.44;172448;28;1239;-56
2022/02/08 00:15:11;;;;;;;;;;;;;;;24.53;31.46;98555.28;172528;28;885;-55
2022/02/08 00:15:16;;;;;;;;;;;;;;;24.52;31.61;98557.09;172654;28;1023;-56
2022/02/08 00:15:21;;;;;;;;;;;;;;;24.54;31.83;98549.94;173310;28;821;-56
2022/02/08 00:15:26;;;;;;;;;;;;;;;24.52;31.88;98550.97;173025;28;1156;-56
2022/02/08 00:15:32;;;;;;;;;;;;;;;24.50;31.76;98554.53;172535;28;910;-57
2022/02/08 00:15:37;;;;;;;;;;;;;;;24.50;31.54;98551.91;172543;28;1177;-56
2022/02/08 00:15:42;;;;;;;;;;;;;;;24.50;31.66;98549.28;172893;28;802;-56
2022/02/08 00:15:47;;;;;;;;;;;;;;;24.52;31.77;98554.44;172551;28;869;-55
2022/02/08 00:15:53;;;;;;;;;;;;;;;24.52;31.77;98557.09;173140;28;1288;-55
2022/02/08 00:15:58;;;;;;;;;;;;;;;24.52;31.63;98553.59;172669;28;839;-57
2022/02/08 00:16:03;;;;;;;;;;;;;;;24.52;31.87;98550.97;172309;28;1125;-56
2022/02/08 00:16:08;;;;;;;;;;;;;;;24.50;31.87;98558.97;172419;28;837;-55
2022/02/08 00:16:13;;;;;;;;;;;;;;;24.49;31.66;98554.63;172170;28;1102;-55
2022/02/08 00:16:19;;;;;;;;;;;;;;;24.50;31.62;98556.34;173288;28;928;-56
2022/02/08 00:16:24;;;;;;;;;;;;;;;24.48;31.74;98556.41;173314;28;790;-57
2022/02/08 00:16:29;;;;;;;;;;;;;;;24.50;31.68;98556.34;172207;28;928;-56
2022/02/08 00:16:34;;;;;;;;;;;;;;;24.47;31.99;98553.84;172547;28;862;-55
2022/02/08 00:16:40;;;;;;;;;;;;;;;24.45;32.02;98556.59;173137;28;1005;-56
2022/02/08 00:16:45;;;;;;;;;;;;;;;24.45;31.69;98553.94;173292;28;1054;-57
2022/02/08 00:16:50;;;;;;;;;;;;;;;24.45;32.08;98555.75;172850;28;1105;-56
2022/02/08 00:16:55;;;;;;;;;;;;;;;24.44;31.78;98556.69;172753;28;822;-56
2022/02/08 00:17:00;;;;;;;;;;;;;;;24.43;31.92;98562.91;172799;28;1116;-54
2022/02/08 00:17:06;;;;;;;;;;;;;;;24.45;31.75;98553.94;172825;28;1019;-56
2022/02/08 00:17:11;;;;;;;;;;;;;;;24.47;31.81;98559.97;172792;28;877;-57
2022/02/08 00:17:16;;;;;;;;;;;;;;;24.44;31.74;98556.69;172620;28;841;-55
2022/02/08 00:17:21;;;;;;;;;;;;;;;24.45;31.92;98559.22;172624;28;1012;-54
2022/02/08 00:17:26;;;;;;;;;;;;;;;24.44;31.83;98549.63;173101;28;1114;-56
2022/02/08 00:17:32;;;;;;;;;;;;;;;24.46;31.75;98549.53;173279;28;778;-55
2022/02/08 00:17:37;;;;;;;;;;;;;;;24.47;31.73;98556.50;173247;28;1165;-56
2022/02/08 00:17:42;;;;;;;;;;;;;;;24.48;32.01;98559.03;173360;28;881;-55
2022/02/08 00:17:47;;;;;;;;;;;;;;;24.48;31.89;98553.75;173082;28;1125;-57
2022/02/08 00:17:53;;;;;;;;;;;;;;;24.50;31.67;98553.69;172698;28;771;-55
2022/02/08 00:17:58;;;;;;;;;;;;;;;24.48;32.03;98559.03;172900;28;957;-56
2022/02/08 00:18:03;;;;;;;;;;;;;;;24.48;31.94;98556.41;173062;28;948;-56
2022/02/08 00:18:08;;;;;;;;;;;;;;;24.51;31.66;98555.41;172914;28;4400;-55
2022/02/08 00:18:13;;;;;;;;;;;;;;;24.50;31.53;98565.09;173294;28;1219;-57
2022/02/08 00:18:19;;;;;;;;;;;;;;;24.49;31.92;98554.63;173322;28;817;-55
2022/02/08 00:18:24;;;;;;;;;;;;;;;24.47;31.97;98554.69;172983;28;1184;-56
2022/02/08 00:18:29;;;;;;;;;;;;;;;24.47;31.95;98554.69;172947;28;1020;-54
2022/02/08 00:18:34;;;;;;;;;;;;;;;24.49;31.84;98554.63;173227;28;1058;-55
2022/02/08 00:18:39;;;;;;;;;;;;;;;24.50;31.85;98557.19;173385;28;825;-57
2022/02/08 00:18:44;;;;;;;;;;;;;;;24.55;31.57;98558.69;173296;28;660;-55
2022/02/08 00:18:50;;;;;;;;;;;;;;;24.56;31.66;98565.66;172676;28;1251;-57
2022/02/08 00:18:55;;;;;;;;;;;;;;;24.55;31.83;98562.16;172620;28;802;-55
2022/02/08 00:19:00;;;;;;;;;;;;;;;24.55;31.53;98558.69;172803;28;1153;-54
2022/02/08 00:19:05;;;;;;;;;;;;;;;24.54;31.65;98560.47;173291;28;884;-56
2022/02/08 00:19:11;;;;;;;;;;;;;;;24.53;31.61;98555.28;173293;28;891;-56
2022/02/08 00:19:16;;;;;;;;;;;;;;;24.55;31.48;98561.31;173334;28;817;-56
2022/02/08 00:19:21;;;;;;;;;;;;;;;24.55;31.64;98564.81;173100;28;1113;-55
2022/02/08 00:19:27;;;;;;;;;;;;;;;24.55;31.53;98564.81;173158;28;857;-56
2022/02/08 00:19:34;;;;;;;;;;;;;;;24.54;31.91;98563.09;173262;28;1520;-56
2022/02/08 00:19:39;;;;;;;;;;;;;;;24.55;31.87;98558.69;173414;28;920;-57
2022/02/08 00:19:45;;;;;;;;;;;;;;;24.55;31.79;98554.25;173220;28;1097;-57
2022/02/08 00:19:50;;;;;;;;;;;;;;;24.54;31.65;98563.09;172551;28;1382;-54
2022/02/08 00:19:55;;;;;;;;;;;;;;;24.53;31.53;98563.22;173003;28;1821;-55
2022/02/08 00:20:03;;;;;;;;;;;;;;;24.53;31.81;98565.84;173008;28;1216;-54
2022/02/08 00:20:08;;;;;;;;;;;;;;;24.55;31.57;98563.97;173254;28;990;-55
2022/02/08 00:20:14;;;;;;;;;;;;;;;24.56;31.57;98560.38;173266;28;1055;-57
2022/02/08 00:20:19;;;;;;;;;;;;;;;24.58;31.80;98564.66;173308;28;928;-56
2022/02/08 00:20:24;;;;;;;;;;;;;;;24.60;31.75;98560.13;173278;28;1350;-55
2022/02/08 00:20:29;;;;;;;;;;;;;;;24.60;31.56;98556.63;173298;28;854;-56
2022/02/08 00:20:34;;;;;;;;;;;;;;;24.58;31.58;98559.38;172767;28;1156;-56
2022/02/08 00:20:40;;;;;;;;;;;;;;;24.60;31.65;98559.28;172665;28;853;-56
2022/02/08 00:20:45;;;;;;;;;;;;;;;24.57;31.33;98557.69;172811;28;1137;-57
2022/02/08 00:20:50;;;;;;;;;;;;;;;24.57;31.63;98560.31;173262;28;953;-56
2022/02/08 00:20:55;;;;;;;;;;;;;;;24.58;31.86;98555.88;173201;28;1023;-56
2022/02/08 00:21:01;;;;;;;;;;;;;;;24.56;31.74;98558.59;173031;28;1175;-53
2022/02/08 00:21:06;;;;;;;;;;;;;;;24.57;31.60;98559.44;173336;28;734;-56
2022/02/08 00:21:11;;;;;;;;;;;;;;;24.58;31.42;98558.53;173268;28;1298;-56
2022/02/08 00:21:16;;;;;;;;;;;;;;;24.55;31.73;98562.16;172922;28;976;-55
2022/02/08 00:21:22;;;;;;;;;;;;;;;24.55;31.45;98554.25;173058;28;1161;-56
2022/02/08 00:21:27;;;;;;;;;;;;;;;24.56;31.72;98557.75;173328;28;806;-55
2022/02/08 00:21:32;;;;;;;;;;;;;;;24.55;31.66;98559.53;173017;28;1113;-55
2022/02/08 00:21:37;;;;;;;;;;;;;;;24.53;31.62;98557.94;172661;28;850;-56
2022/02/08 00:21:42;;;;;;;;;;;;;;;24.54;31.47;98565.75;172702;28;1204;-56
2022/02/08 00:21:48;;;;;;;;;;;;;;;24.52;31.65;98553.59;173322;28;838;-56
2022/02/08 00:21:53;;;;;;;;;;;;;;;24.54;31.51;98559.63;173372;28;884;-57
2022/02/08 00:21:58;;;;;;;;;;;;;;;24.54;31.85;98560.47;173025;28;1105;-55
2022/02/08 00:22:03;;;;;;;;;;;;;;;24.56;31.48;98563.00;172714;28;4394;-55
2022/02/08 00:22:09;;;;;;;;;;;;;;;24.57;31.60;98565.59;172991;28;1169;-55
2022/02/08 00:22:14;;;;;;;;;;;;;;;24.56;31.72;98561.22;172722;28;833;-56
2022/02/08 00:22:19;;;;;;;;;;;;;;;24.57;31.79;98552.41;172868;28;1224;-56
2022/02/08 00:22:24;;;;;;;;;;;;;;;24.57;31.72;98556.78;173363;28;952;-55
2022/02/08 00:22:30;;;;;;;;;;;;;;;24.57;31.51;98560.31;173169;28;1203;-56
2022/02/08 00:22:35;;;;;;;;;;;;;;;24.58;31.54;98558.53;172617;28;834;-55
2022/02/08 00:22:40;;;;;;;;;;;;;;;24.57;31.51;98560.31;172948;28;845;-55
2022/02/08 00:22:46;;;;;;;;;;;;;;;24.57;31.58;98557.69;173250;28;1263;-56
2022/02/08 00:22:51;;;;;;;;;;;;;;;24.56;31.45;98555.09;173372;28;829;-57
2022/02/08 00:22:56;;;;;;;;;;;;;;;24.56;31.50;98555.09;172914;28;1168;-55
2022/02/08 00:23:01;;;;;;;;;;;;;;;24.54;31.77;98563.09;172986;28;1298;-54
2022/02/08 00:23:06;;;;;;;;;;;;;;;24.54;31.54;98560.47;173212;28;1053;-55
2022/02/08 00:23:12;;;;;;;;;;;;;;;24.55;31.64;98558.69;172749;28;798;-56
2022/02/08 00:23:17;;;;;;;;;;;;;;;24.56;31.60;98557.75;172729;28;1165;-56
2022/02/08 00:23:22;;;;;;;;;;;;;;;24.57;31.66;98554.16;173364;28;916;-55
2022/02/08 00:23:27;;;;;;;;;;;;;;;24.56;31.63;98555.94;173381;28;873;-56
2022/02/08 00:23:32;;;;;;;;;;;;;;;24.56;31.64;98561.22;172655;28;1153;-55
2022/02/08 00:23:37;;;;;;;;;;;;;;;24.56;31.71;98555.94;173183;28;909;-56
2022/02/08 00:23:43;;;;;;;;;;;;;;;24.55;31.86;98559.53;173312;28;1193;-57
2022/02/08 00:23:48;;;;;;;;;;;;;;;24.54;31.77;98560.47;173298;28;913;-56
2022/02/08 00:23:53;;;;;;;;;;;;;;;24.55;31.84;98561.31;173104;28;1176;-56
2022/02/08 00:23:58;;;;;;;;;;;;;;;24.53;31.84;98557.94;173083;28;905;-55
2022/02/08 00:24:04;;;;;;;;;;;;;;;24.50;31.83;98557.19;173056;28;1176;-56
2022/02/08 00:24:09;;;;;;;;;;;;;;;24.50;31.92;98551.06;173316;28;801;-57
2022/02/08 00:24:14;;;;;;;;;;;;;;;24.50;31.53;98551.91;173349;28;849;-55
2022/02/08 00:24:19;;;;;;;;;;;;;;;24.52;31.79;98556.25;173309;28;1193;-56
2022/02/08 00:24:25;;;;;;;;;;;;;;;24.50;31.73;98557.19;173369;28;834;-55
2022/02/08 00:24:30;;;;;;;;;;;;;;;24.51;31.61;98563.31;172914;28;1160;-57
2022/02/08 00:24:35;;;;;;;;;;;;;;;24.50;31.62;98557.19;173358;28;951;-56
2022/02/08 00:24:40;;;;;;;;;;;;;;;24.50;31.83;98556.34;173270;28;1106;-56
2022/02/08 00:24:45;;;;;;;;;;;;;;;24.52;31.88;98565.00;173364;28;888;-56
2022/02/08 00:24:50;;;;;;;;;;;;;;;24.50;31.85;98557.19;173184;28;1156;-56
2022/02/08 00:24:56;;;;;;;;;;;;;;;24.49;31.87;98557.28;172789;28;901;-57
2022/02/08 00:25:01;;;;;;;;;;;;;;;24.45;31.94;98564.50;172873;28;1000;-55
2022/02/08 00:25:06;;;;;;;;;;;;;;;24.49;31.66;98554.63;173211;28;1088;-54
2022/02/08 00:25:12;;;;;;;;;;;;;;;24.48;31.86;98559.03;173315;28;767;-56
2022/02/08 00:25:17;;;;;;;;;;;;;;;24.49;31.69;98552.00;173288;28;1030;-56
2022/02/08 00:25:22;;;;;;;;;;;;;;;24.47;31.87;98548.59;173371;28;913;-55
2022/02/08 00:25:27;;;;;;;;;;;;;;;24.49;31.94;98558.13;173238;28;1026;-55
2022/02/08 00:25:32;;;;;;;;;;;;;;;24.51;31.92;98552.75;173305;28;948;-55
2022/02/08 00:25:38;;;;;;;;;;;;;;;24.52;31.67;98556.25;173252;28;1195;-56
2022/02/08 00:25:43;;;;;;;;;;;;;;;24.52;31.85;98559.72;171922;28;795;-56
2022/02/08 00:25:49;;;;;;;;;;;;;;;24.51;31.81;98555.41;171957;28;786;-57
2022/02/08 00:25:54;;;;;;;;;;;;;;;24.51;31.61;98552.75;172530;28;1221;-55
2022/02/08 00:25:59;;;;;;;;;;;;;;;24.52;31.62;98558.88;171795;28;1165;-53
2022/02/08 00:26:04;;;;;;;;;;;;;;;24.50;31.66;98554.53;172888;28;1231;-55
2022/02/08 00:26:10;;;;;;;;;;;;;;;24.49;31.76;98557.28;172551;28;4221;-56
2022/02/08 00:26:15;;;;;;;;;;;;;;;24.47;31.84;98552.06;172798;28;1113;-56
2022/02/08 00:26:20;;;;;;;;;;;;;;;24.48;31.97;98551.13;173314;28;805;-56
2022/02/08 00:26:25;;;;;;;;;;;;;;;24.47;31.69;98552.06;172652;28;975;-55
2022/02/08 00:26:30;;;;;;;;;;;;;;;24.49;31.57;98554.63;173328;28;824;-55
2022/02/08 00:26:36;;;;;;;;;;;;;;;24.46;31.90;98552.16;173195;28;644;-55
2022/02/08 00:26:41;;;;;;;;;;;;;;;24.47;31.74;98556.50;172608;28;1231;-57
2022/02/08 00:26:46;;;;;;;;;;;;;;;24.47;31.99;98551.22;172574;28;897;-56
2022/02/08 00:26:51;;;;;;;;;;;;;;;24.49;31.69;98552.00;172506;28;1079;-56
2022/02/08 00:26:56;;;;;;;;;;;;;;;24.48;31.87;98550.28;172193;28;833;-55
2022/02/08 00:27:02;;;;;;;;;;;;;;;24.45;31.79;98547.84;172301;28;1133;-56
2022/02/08 00:27:07;;;;;;;;;;;;;;;24.46;31.77;98549.53;173280;28;801;-56
2022/02/08 00:27:12;;;;;;;;;;;;;;;24.47;31.82;98554.69;172102;28;1098;-54
2022/02/08 00:27:18;;;;;;;;;;;;;;;24.50;31.81;98556.34;173052;28;901;-56
2022/02/08 00:27:23;;;;;;;;;;;;;;;24.50;31.70;98551.91;172626;28;509;-56
2022/02/08 00:27:28;;;;;;;;;;;;;;;24.50;31.66;98551.91;173135;28;1272;-57
2022/02/08 00:27:33;;;;;;;;;;;;;;;24.47;31.68;98557.34;173303;28;821;-55
2022/02/08 00:27:38;;;;;;;;;;;;;;;24.49;31.64;98559.91;172033;28;1545;-55
2022/02/08 00:27:43;;;;;;;;;;;;;;;24.49;31.95;98562.56;172977;28;960;-56
2022/02/08 00:27:49;;;;;;;;;;;;;;;24.50;31.72;98556.34;172819;28;971;-57
2022/02/08 00:27:54;;;;;;;;;;;;;;;24.50;31.78;98557.19;173297;28;952;-56
2022/02/08 00:27:59;;;;;;;;;;;;;;;24.49;31.93;98558.13;172883;28;998;-57
2022/02/08 00:28:04;;;;;;;;;;;;;;;24.49;31.62;98554.63;173313;28;813;-55
2022/02/08 00:28:09;;;;;;;;;;;;;;;24.50;31.66;98557.19;173349;28;917;-56
2022/02/08 00:28:15;;;;;;;;;;;;;;;24.46;31.88;98558.28;173243;28;1208;-56
2022/02/08 00:28:20;;;;;;;;;;;;;;;24.41;32.02;98556.84;173339;28;861;-56
2022/02/08 00:28:25;;;;;;;;;;;;;;;24.42;32.10;98550.66;173296;28;1379;-56
2022/02/08 00:28:30;;;;;;;;;;;;;;;24.43;31.92;98555.84;173314;28;802;-56
2022/02/08 00:28:35;;;;;;;;;;;;;;;24.46;31.83;98554.81;173064;28;1149;-56
2022/02/08 00:28:41;;;;;;;;;;;;;;;24.48;31.81;98556.41;172668;28;960;-55
2022/02/08 00:28:46;;;;;;;;;;;;;;;24.49;31.62;98554.63;173230;28;1181;-57
2022/02/08 00:28:51;;;;;;;;;;;;;;;24.49;31.79;98555.50;173368;28;790;-56
2022/02/08 00:28:56;;;;;;;;;;;;;;;24.49;31.92;98559.91;173231;28;881;-56
2022/02/08 00:29:02;;;;;;;;;;;;;;;24.49;31.61;98559.91;173101;28;1220;-55
2022/02/08 00:29:07;;;;;;;;;;;;;;;24.50;31.78;98556.34;173276;28;1027;-56
2022/02/08 00:29:13;;;;;;;;;;;;;;;24.50;31.75;98551.91;173200;28;919;-56
2022/02/08 00:29:18;;;;;;;;;;;;;;;24.53;31.68;98558.78;173357;28;913;-55
2022/02/08 00:29:23;;;;;;;;;;;;;;;24.55;31.64;98558.69;172948;28;1093;-56
2022/02/08 00:29:29;;;;;;;;;;;;;;;24.54;31.70;98563.09;172667;28;1016;-56
2022/02/08 00:29:34;;;;;;;;;;;;;;;24.53;31.82;98560.56;172697;28;1109;-57
2022/02/08 00:29:39;;;;;;;;;;;;;;;24.51;31.62;98560.66;173349;28;805;-56
2022/02/08 00:29:44;;;;;;;;;;;;;;;24.47;31.62;98565.25;173334;28;778;-56
2022/02/08 00:29:49;;;;;;;;;;;;;;;24.49;31.67;98562.56;173304;28;1062;-56
2022/02/08 00:29:55;;;;;;;;;;;;;;;24.50;31.61;98561.59;173242;28;829;-56
2022/02/08 00:30:00;;;;;;;;;;;;;;;24.50;31.85;98559.81;173009;28;1173;-54
2022/02/08 00:30:05;;;;;;;;;;;;;;;24.54;31.58;98557.84;173301;28;850;-56
2022/02/08 00:30:10;;;;;;;;;;;;;;;24.53;31.79;98558.78;172643;28;4386;-56
2022/02/08 00:30:16;;;;;;;;;;;;;;;24.53;31.68;98558.78;173302;28;905;-57
2022/02/08 00:30:21;;;;;;;;;;;;;;;24.53;31.62;98561.41;173182;28;1168;-56
2022/02/08 00:30:26;;;;;;;;;;;;;;;24.54;31.79;98560.47;172609;28;941;-55
2022/02/08 00:30:31;;;;;;;;;;;;;;;24.51;31.75;98563.31;172687;28;865;-56